Airfield :
LOGIN :

Register | Disclaimer

   EN    FR    IT 

 










Legend :    VFR   Marginal VFR   IFR   Intensive IFR   Very Intensive IFR
Visi :
Ceiling :
>= 8 km
>= 3000ft
5 to 8 km
1000 to 3000 ft
1500m to 5 km
500 to 1000 ft
800 to 1500m
200 to 500 ft
< 800m
< 200 ft
Symbols :   Thunderstorms  Fog  Heavy snow  Heavy precipitations  Wind > 20 kt
SIGMETs :     Misc.  Thunderstorms  Icing  Turbulence  Mountain Waves  Volcanic Ashes






- Airport Elevation : 726 ft
- IATA code : DIJ


LFSD - Dijon

CURRENT METAR :
  • 160330Z AUTO 18006KT CAVOK 09/08 Q1016

EXPIRED METARs :
  • 160300Z AUTO 19005KT CAVOK 09/08 Q1016
  • 160230Z AUTO 19006KT 9999 FEW043 BKN056 BKN074 09/08 Q1016
  • 160200Z AUTO 21005KT CAVOK 09/08 Q1017
  • 160100Z AUTO 20008KT 9999 BKN049 BKN066 OVC076 09/08 Q1017

Expired Forecast.



MET'MAP, your aeronautical weather chart ! - Copyright ORBIFLY December 2007 - Disclaimer

ORBIFLY MET'MAP TEAM :

Programming & Development : Alexandra Zaïnal
Concept & Development : Baudouin d'Aumeries
Co-Development & Prog : Marc-Olivier Méhu
Technical & hardware support : Manuel Goepfert

Contact : metmap@orbifly.com




SOURCES & CREDITS :

   NOAA